createdAt,value
2023-05-22T00:00:08.306Z,101094.17
2023-05-22T00:02:59.323Z,101096.08
2023-05-22T00:05:28.410Z,101092.12
2023-05-22T00:07:57.825Z,101091.83
2023-05-22T00:10:26.730Z,101092.27
2023-05-22T00:12:55.638Z,101089.67
2023-05-22T00:15:24.628Z,101090.84
2023-05-22T00:17:54.560Z,101089.71
2023-05-22T00:20:23.844Z,101087.06
2023-05-22T00:22:53.912Z,101088.33
2023-05-22T00:25:22.878Z,101088.44
2023-05-22T00:27:51.838Z,101089.05
2023-05-22T00:30:21.577Z,101086.80
2023-05-22T00:32:50.676Z,101091.33
2023-05-22T00:35:19.963Z,101088.47
2023-05-22T00:37:48.942Z,101088.21
2023-05-22T00:40:18.047Z,101088.27
2023-05-22T00:42:47.445Z,101088.23
2023-05-22T00:45:16.432Z,101086.85
2023-05-22T00:47:45.671Z,101085.08
2023-05-22T00:50:14.630Z,101082.42
2023-05-22T00:52:46.713Z,101084.61
2023-05-22T00:55:16.968Z,101083.44
2023-05-22T00:57:46.345Z,101081.35
2023-05-22T01:00:17.159Z,101078.73
2023-05-22T01:02:47.417Z,101079.02
2023-05-22T01:05:18.559Z,101079.17
2023-05-22T01:07:48.127Z,101082.77
2023-05-22T01:10:17.122Z,101085.65
2023-05-22T01:13:24.938Z,101091.02
2023-05-22T01:16:33.314Z,101094.44
2023-05-22T01:19:39.824Z,101095.02
2023-05-22T01:22:41.241Z,101093.44
2023-05-22T01:25:57.282Z,101091.29
2023-05-22T01:29:07.755Z,101087.52
2023-05-22T01:31:41.224Z,101087.77
2023-05-22T01:34:15.462Z,101085.79
2023-05-22T01:36:47.348Z,101087.52
2023-05-22T01:39:18.106Z,101092.48
2023-05-22T01:41:47.877Z,101091.52
2023-05-22T01:44:16.786Z,101094.27
2023-05-22T01:46:45.757Z,101093.95
2023-05-22T01:49:15.156Z,101094.46
2023-05-22T01:51:58.035Z,101091.02
2023-05-22T01:54:53.075Z,101088.80
2023-05-22T01:57:31.330Z,101093.88
2023-05-22T02:00:14.514Z,101095.61
2023-05-22T02:02:54.560Z,101096.86
2023-05-22T02:05:27.984Z,101094.21
2023-05-22T02:08:01.414Z,101091.15
2023-05-22T02:10:32.313Z,101090.66
2023-05-22T02:13:01.605Z,101096.36
2023-05-22T02:15:31.313Z,101096.06
2023-05-22T02:18:02.276Z,101101.30
2023-05-22T02:20:31.464Z,101103.60
2023-05-22T02:23:00.357Z,101099.80
2023-05-22T02:25:29.251Z,101100.76
2023-05-22T02:27:58.237Z,101096.77
2023-05-22T02:30:27.675Z,101095.53
2023-05-22T02:32:58.730Z,101097.34
2023-05-22T02:35:27.683Z,101093.94
2023-05-22T02:37:57.001Z,101094.58
2023-05-22T02:40:25.975Z,101097.67
2023-05-22T02:42:55.213Z,101099.77
2023-05-22T02:45:24.241Z,101105.48
2023-05-22T02:47:53.322Z,101109.12
2023-05-22T02:50:22.251Z,101109.80
2023-05-22T02:52:51.257Z,101107.94
2023-05-22T02:55:20.455Z,101104.34
2023-05-22T02:57:49.341Z,101101.31
2023-05-22T03:00:19.311Z,101104.89
2023-05-22T03:02:48.325Z,101109.26
2023-05-22T03:05:18.333Z,101108.33
2023-05-22T03:07:48.757Z,101108.98
2023-05-22T03:10:18.096Z,101110.06
2023-05-22T03:12:47.632Z,101108.14
2023-05-22T03:15:16.901Z,101103.27
2023-05-22T03:17:46.134Z,101103.21
2023-05-22T03:20:17.343Z,101101.16
2023-05-22T03:22:46.557Z,101101.39
2023-05-22T03:25:17.494Z,101102.14
2023-05-22T03:27:47.517Z,101100.02
2023-05-22T03:30:17.942Z,101101.85
2023-05-22T03:32:55.190Z,101104.88
2023-05-22T03:35:25.690Z,101108.34
2023-05-22T03:37:54.744Z,101106.15
2023-05-22T03:40:23.658Z,101108.75
2023-05-22T03:42:52.641Z,101109.56
2023-05-22T03:45:21.631Z,101111.46
2023-05-22T03:47:50.636Z,101109.32
2023-05-22T03:50:19.937Z,101106.30
2023-05-22T03:52:48.798Z,101102.85
2023-05-22T03:55:18.215Z,101099.88
2023-05-22T03:57:47.221Z,101096.62
2023-05-22T04:00:19.794Z,101095.23
2023-05-22T04:02:50.866Z,101094.79
2023-05-22T04:05:19.978Z,101096.02
2023-05-22T04:07:48.926Z,101097.36
2023-05-22T04:10:18.015Z,101095.05
2023-05-22T04:12:47.038Z,101090.27
2023-05-22T04:15:16.205Z,101092.94
2023-05-22T04:17:45.157Z,101091.69
2023-05-22T04:20:14.507Z,101092.82
2023-05-22T04:22:43.399Z,101093.77
2023-05-22T04:25:12.385Z,101094.98
2023-05-22T04:27:41.387Z,101096.79
2023-05-22T04:30:11.143Z,101103.20
2023-05-22T04:32:41.454Z,101104.52
2023-05-22T04:35:12.548Z,101106.90
2023-05-22T04:37:42.633Z,101108.16
2023-05-22T04:40:13.110Z,101108.93
2023-05-22T04:42:46.305Z,101110.44
2023-05-22T04:45:15.549Z,101113.24
2023-05-22T04:47:44.852Z,101114.27
2023-05-22T04:50:14.569Z,101115.55
2023-05-22T04:52:43.718Z,101115.69
2023-05-22T04:55:13.021Z,101116.66
2023-05-22T04:57:44.873Z,101118.20
2023-05-22T05:00:17.250Z,101121.52
2023-05-22T05:02:47.561Z,101126.08
2023-05-22T05:05:16.982Z,101121.55
2023-05-22T05:07:49.828Z,101120.19
2023-05-22T05:10:21.635Z,101119.83
2023-05-22T05:12:50.612Z,101124.23
2023-05-22T05:15:23.307Z,101123.25
2023-05-22T05:17:52.589Z,101126.09
2023-05-22T05:20:21.913Z,101125.61
2023-05-22T05:22:53.078Z,101122.36
2023-05-22T05:25:22.913Z,101125.23
2023-05-22T05:27:51.863Z,101121.81
2023-05-22T05:30:22.281Z,101121.44
2023-05-22T05:33:09.682Z,101118.04
2023-05-22T05:35:50.879Z,101120.69
2023-05-22T05:38:20.716Z,101119.20
2023-05-22T05:40:49.789Z,101118.16
2023-05-22T05:43:19.605Z,101114.71
2023-05-22T05:45:48.738Z,101107.92
2023-05-22T05:48:18.415Z,101110.49
2023-05-22T05:50:49.785Z,101108.06
2023-05-22T05:53:18.973Z,101107.09
2023-05-22T05:55:56.047Z,101102.55
2023-05-22T05:58:25.052Z,101103.48
2023-05-22T06:01:50.966Z,101102.79
2023-05-22T06:04:24.388Z,101104.86
2023-05-22T06:06:53.973Z,101102.22
2023-05-22T06:09:30.446Z,101105.73
2023-05-22T06:12:18.526Z,101106.64
2023-05-22T06:14:48.097Z,101111.29
2023-05-22T06:17:17.306Z,101107.12
2023-05-22T06:19:46.694Z,101107.82
2023-05-22T06:22:16.013Z,101104.08
2023-05-22T06:24:45.810Z,101104.26
2023-05-22T06:27:18.487Z,101105.14
2023-05-22T06:29:47.438Z,101101.77
2023-05-22T06:32:16.957Z,101100.89
2023-05-22T06:34:48.532Z,101100.52
2023-05-22T06:37:18.047Z,101101.31
2023-05-22T06:39:47.252Z,101105.71
2023-05-22T06:42:29.050Z,101103.09
2023-05-22T06:45:18.314Z,101095.64
2023-05-22T06:47:55.043Z,101095.27
2023-05-22T06:50:24.290Z,101094.70
2023-05-22T06:52:53.529Z,101091.70
2023-05-22T06:55:23.841Z,101100.36
2023-05-22T06:58:02.341Z,101095.98
2023-05-22T07:00:33.096Z,101098.75
2023-05-22T07:03:07.671Z,101093.90
2023-05-22T07:06:25.071Z,101094.65
2023-05-22T07:08:54.531Z,101092.59
2023-05-22T07:11:23.830Z,101085.96
2023-05-22T07:13:52.823Z,101086.02
2023-05-22T07:16:23.779Z,101085.30
2023-05-22T07:18:53.431Z,101089.06
2023-05-22T07:21:24.222Z,101088.04
2023-05-22T07:23:53.506Z,101088.36
2023-05-22T07:26:23.025Z,101090.05
2023-05-22T07:28:59.613Z,101087.67
2023-05-22T07:31:29.236Z,101081.61
2023-05-22T07:33:58.446Z,101081.85
2023-05-22T07:36:27.590Z,101083.65
2023-05-22T07:38:56.890Z,101080.77
2023-05-22T07:41:27.624Z,101080.88
2023-05-22T07:43:56.514Z,101082.13
2023-05-22T07:46:29.050Z,101080.08
2023-05-22T07:49:02.113Z,101077.73
2023-05-22T07:51:31.687Z,101075.63
2023-05-22T07:54:00.894Z,101072.55
2023-05-22T07:56:31.517Z,101072.61
2023-05-22T07:59:01.594Z,101073.80
2023-05-22T08:01:30.533Z,101075.41
2023-05-22T08:03:59.639Z,101071.87
2023-05-22T08:06:30.619Z,101071.91
2023-05-22T08:09:00.501Z,101068.83
2023-05-22T08:11:29.719Z,101067.48
2023-05-22T08:13:58.768Z,101064.24
2023-05-22T08:16:27.965Z,101062.44
2023-05-22T08:19:00.018Z,101059.07
2023-05-22T08:21:29.071Z,101057.23
2023-05-22T08:23:58.138Z,101057.76
2023-05-22T08:26:28.093Z,101056.67
2023-05-22T08:28:57.967Z,101058.34
2023-05-22T08:31:29.790Z,101056.61
2023-05-22T08:34:03.003Z,101058.30
2023-05-22T08:36:34.436Z,101055.02
2023-05-22T08:39:03.901Z,101038.59
2023-05-22T08:41:32.865Z,101046.80
2023-05-22T08:44:01.960Z,101039.64
2023-05-22T08:46:31.373Z,101037.52
2023-05-22T08:49:01.739Z,101036.84
2023-05-22T08:51:34.573Z,101033.73
2023-05-22T08:54:08.108Z,101034.43
2023-05-22T08:56:42.656Z,101035.89
2023-05-22T08:59:19.692Z,101029.45
2023-05-22T09:01:49.434Z,101020.96
2023-05-22T09:04:19.311Z,101017.55
2023-05-22T09:06:48.338Z,101014.73
2023-05-22T09:09:17.322Z,101015.83
2023-05-22T09:11:46.634Z,101013.79
2023-05-22T09:14:16.625Z,100995.89
2023-05-22T09:16:53.166Z,100997.96
2023-05-22T09:19:22.146Z,101000.23
2023-05-22T09:21:51.688Z,101002.21
2023-05-22T09:24:21.105Z,101002.52
2023-05-22T09:26:52.854Z,100999.64
2023-05-22T09:29:22.704Z,100992.09
2023-05-22T09:31:51.690Z,100992.60
2023-05-22T09:34:20.889Z,100995.98
2023-05-22T09:36:51.626Z,100993.23
2023-05-22T09:39:20.507Z,100988.36
2023-05-22T09:41:49.681Z,100987.34
2023-05-22T09:44:18.588Z,100990.69
2023-05-22T09:46:48.182Z,100986.09
2023-05-22T09:49:17.687Z,100984.34
2023-05-22T09:51:48.604Z,100980.03
2023-05-22T09:54:20.433Z,100980.34
2023-05-22T09:56:53.229Z,100977.65
2023-05-22T09:59:27.315Z,100976.39
2023-05-22T10:01:57.661Z,100977.52
2023-05-22T10:04:28.369Z,100970.79
2023-05-22T10:06:59.748Z,100972.77
2023-05-22T10:09:34.668Z,100967.90
2023-05-22T10:12:07.457Z,100975.58
2023-05-22T10:14:37.144Z,100968.36
2023-05-22T10:17:07.196Z,100969.84
2023-05-22T10:19:39.617Z,100967.75
2023-05-22T10:22:21.077Z,100962.48
2023-05-22T10:24:51.225Z,100963.88
2023-05-22T10:27:20.129Z,100959.45
2023-05-22T10:30:19.431Z,100956.23
2023-05-22T10:33:08.961Z,100955.42
2023-05-22T10:35:56.370Z,100953.64
2023-05-22T10:38:45.256Z,100952.31
2023-05-22T10:41:15.440Z,100947.92
2023-05-22T10:43:48.798Z,100951.16
2023-05-22T10:46:18.556Z,100955.65
2023-05-22T10:48:55.610Z,100952.23
2023-05-22T10:51:25.528Z,100950.60
2023-05-22T10:54:01.397Z,100947.20
2023-05-22T10:56:35.654Z,100945.74
2023-05-22T10:59:08.005Z,100934.08
2023-05-22T11:01:38.740Z,100929.97
2023-05-22T11:04:16.241Z,100925.83
2023-05-22T11:07:03.151Z,100915.20
2023-05-22T11:09:35.011Z,100924.83
2023-05-22T11:12:30.734Z,100927.13
2023-05-22T11:15:11.665Z,100919.28
2023-05-22T11:17:40.505Z,100922.88
2023-05-22T11:20:25.452Z,100923.00
2023-05-22T11:23:03.963Z,100917.45
2023-05-22T11:25:36.781Z,100915.48
2023-05-22T11:28:07.573Z,100916.77
2023-05-22T11:30:38.583Z,100908.98
2023-05-22T11:33:08.125Z,100904.53
2023-05-22T11:35:38.877Z,100898.61
2023-05-22T11:38:09.412Z,100897.33
2023-05-22T11:40:38.796Z,100901.41
2023-05-22T11:43:08.057Z,100897.38
2023-05-22T11:45:39.857Z,100888.39
2023-05-22T11:48:09.500Z,100890.48
2023-05-22T11:50:42.472Z,100884.63
2023-05-22T11:53:12.952Z,100885.38
2023-05-22T11:55:43.521Z,100889.57
2023-05-22T11:58:12.488Z,100884.72
2023-05-22T12:00:43.539Z,100881.20
2023-05-22T12:03:13.860Z,100881.27
2023-05-22T12:05:47.080Z,100872.18
2023-05-22T12:08:16.235Z,100876.52
2023-05-22T12:10:50.264Z,100881.63
2023-05-22T12:13:32.560Z,100874.88
2023-05-22T12:16:01.901Z,100873.41
2023-05-22T12:18:37.807Z,100869.64
2023-05-22T12:21:07.438Z,100866.87
2023-05-22T12:23:36.423Z,100871.93
2023-05-22T12:26:10.421Z,100861.00
2023-05-22T12:28:39.820Z,100867.23
2023-05-22T12:31:09.034Z,100866.63
2023-05-22T12:33:41.011Z,100864.17
2023-05-22T12:36:11.429Z,100864.16
2023-05-22T12:38:41.651Z,100858.54
2023-05-22T12:41:10.686Z,100858.20
2023-05-22T12:43:39.636Z,100855.83
2023-05-22T12:46:08.763Z,100853.05
2023-05-22T12:48:37.834Z,100849.45
2023-05-22T12:51:07.028Z,100837.54
2023-05-22T12:53:36.230Z,100837.29
2023-05-22T12:56:06.240Z,100838.48
2023-05-22T12:58:35.552Z,100822.90
2023-05-22T13:01:04.538Z,100825.23
2023-05-22T13:03:33.634Z,100821.70
2023-05-22T13:06:02.628Z,100809.81
2023-05-22T13:08:31.833Z,100817.02
2023-05-22T13:11:01.063Z,100818.71
2023-05-22T13:13:32.473Z,100818.80
2023-05-22T13:16:01.635Z,100809.20
2023-05-22T13:18:30.986Z,100810.01
2023-05-22T13:21:00.752Z,100816.64
2023-05-22T13:23:30.314Z,100814.44
2023-05-22T13:26:02.274Z,100809.16
2023-05-22T13:28:31.351Z,100807.59
2023-05-22T13:31:00.457Z,100808.83
2023-05-22T13:33:29.340Z,100805.63
2023-05-22T13:35:58.334Z,100807.33
2023-05-22T13:38:27.589Z,100806.55
2023-05-22T13:40:56.676Z,100806.89
2023-05-22T13:43:25.543Z,100798.77
2023-05-22T13:45:54.609Z,100800.15
2023-05-22T13:48:23.512Z,100798.41
2023-05-22T13:50:52.708Z,100799.48
2023-05-22T13:53:21.706Z,100796.08
2023-05-22T13:55:51.655Z,100801.44
2023-05-22T13:58:20.730Z,100793.98
2023-05-22T14:00:49.767Z,100792.01
2023-05-22T14:03:19.085Z,100792.80
2023-05-22T14:05:49.041Z,100792.38
2023-05-22T14:08:17.925Z,100795.93
2023-05-22T14:10:47.032Z,100789.27
2023-05-22T14:13:15.924Z,100787.27
2023-05-22T14:15:47.365Z,100784.23
2023-05-22T14:18:19.642Z,100781.04
2023-05-22T14:20:49.755Z,100781.76
2023-05-22T14:23:18.752Z,100776.79
2023-05-22T14:25:48.044Z,100775.86
2023-05-22T14:28:17.059Z,100771.15
2023-05-22T14:30:46.363Z,100768.02
2023-05-22T14:33:15.547Z,100769.30
2023-05-22T14:35:44.988Z,100768.48
2023-05-22T14:38:14.053Z,100772.33
2023-05-22T14:40:43.470Z,100768.38
2023-05-22T14:43:12.343Z,100768.89
2023-05-22T14:45:41.761Z,100767.16
2023-05-22T14:48:11.922Z,100765.40
2023-05-22T14:50:41.078Z,100764.36
2023-05-22T14:53:10.173Z,100764.80
2023-05-22T14:55:39.597Z,100764.77
2023-05-22T14:58:08.967Z,100762.42
2023-05-22T15:00:38.070Z,100761.54
2023-05-22T15:03:07.158Z,100762.93
2023-05-22T15:05:36.455Z,100752.87
2023-05-22T15:08:05.291Z,100757.03
2023-05-22T15:10:34.354Z,100754.14
2023-05-22T15:13:03.468Z,100756.23
2023-05-22T15:15:32.778Z,100752.72
2023-05-22T15:18:05.056Z,100753.75
2023-05-22T15:20:35.275Z,100755.08
2023-05-22T15:23:04.354Z,100754.60
2023-05-22T15:25:36.862Z,100753.23
2023-05-22T15:28:08.596Z,100752.83
2023-05-22T15:30:39.304Z,100757.21
2023-05-22T15:33:08.557Z,100753.83
2023-05-22T15:35:37.927Z,100755.69
2023-05-22T15:38:07.310Z,100755.15
2023-05-22T15:40:36.223Z,100755.02
2023-05-22T15:43:07.249Z,100752.55
2023-05-22T15:45:40.584Z,100750.33
2023-05-22T15:48:10.027Z,100748.65
2023-05-22T15:50:39.138Z,100747.45
2023-05-22T15:53:08.369Z,100750.11
2023-05-22T15:55:37.373Z,100748.49
2023-05-22T15:58:08.123Z,100748.85
2023-05-22T16:00:39.003Z,100747.29
2023-05-22T16:03:09.146Z,100745.73
2023-05-22T16:05:40.269Z,100745.78
2023-05-22T16:08:12.646Z,100745.28
2023-05-22T16:10:47.275Z,100746.50
2023-05-22T16:13:16.379Z,100741.95
2023-05-22T16:15:45.607Z,100742.27
2023-05-22T16:18:14.558Z,100741.27
2023-05-22T16:20:43.662Z,100742.14
2023-05-22T16:23:12.622Z,100740.27
2023-05-22T16:25:41.860Z,100743.83
2023-05-22T16:28:11.466Z,100743.33
2023-05-22T16:30:40.488Z,100747.13
2023-05-22T16:33:09.374Z,100746.12
2023-05-22T16:35:38.665Z,100739.19
2023-05-22T16:38:12.017Z,100746.98
2023-05-22T16:40:40.998Z,100746.24
2023-05-22T16:43:10.338Z,100752.59
2023-05-22T16:45:39.494Z,100752.14
2023-05-22T16:48:08.683Z,100750.63
2023-05-22T16:50:37.686Z,100751.34
2023-05-22T16:53:06.721Z,100749.13
2023-05-22T16:55:35.751Z,100752.04
2023-05-22T16:58:07.576Z,100751.52
2023-05-22T17:00:37.226Z,100751.70
2023-05-22T17:03:09.944Z,100751.99
2023-05-22T17:05:39.927Z,100753.20
2023-05-22T17:08:09.192Z,100755.77
2023-05-22T17:10:38.205Z,100761.95
2023-05-22T17:13:07.143Z,100759.19
2023-05-22T17:15:36.167Z,100760.02
2023-05-22T17:18:05.295Z,100760.02
2023-05-22T17:20:34.481Z,100763.88
2023-05-22T17:23:03.569Z,100760.91
2023-05-22T17:25:32.553Z,100762.59
2023-05-22T17:28:01.655Z,100761.35
2023-05-22T17:30:30.567Z,100759.30
2023-05-22T17:32:59.639Z,100768.08
2023-05-22T17:35:28.632Z,100767.70
2023-05-22T17:37:57.931Z,100766.51
2023-05-22T17:40:39.993Z,100765.48
2023-05-22T17:43:12.725Z,100767.46
2023-05-22T17:45:42.018Z,100770.48
2023-05-22T17:48:12.968Z,100769.27
2023-05-22T17:50:43.409Z,100768.96
2023-05-22T17:53:13.809Z,100770.78
2023-05-22T17:55:42.810Z,100768.77
2023-05-22T17:58:12.002Z,100767.64
2023-05-22T18:00:41.293Z,100768.44
2023-05-22T18:03:10.488Z,100770.67
2023-05-22T18:05:39.698Z,100772.13
2023-05-22T18:08:08.730Z,100775.19
2023-05-22T18:10:38.430Z,100778.73
2023-05-22T18:13:08.960Z,100776.58
2023-05-22T18:15:37.878Z,100779.05
2023-05-22T18:18:07.943Z,100780.52
2023-05-22T18:20:38.275Z,100784.79
2023-05-22T18:23:07.344Z,100785.86
2023-05-22T18:25:36.714Z,100788.05
2023-05-22T18:28:06.091Z,100787.50
2023-05-22T18:30:34.970Z,100790.09
2023-05-22T18:33:04.299Z,100790.14
2023-05-22T18:35:33.300Z,100795.77
2023-05-22T18:38:02.151Z,100797.93
2023-05-22T18:40:31.375Z,100795.50
2023-05-22T18:43:00.348Z,100797.63
2023-05-22T18:45:29.342Z,100801.94
2023-05-22T18:47:58.386Z,100804.41
2023-05-22T18:50:27.545Z,100805.52
2023-05-22T18:52:56.951Z,100806.94
2023-05-22T18:55:25.624Z,100806.65
2023-05-22T18:57:54.537Z,100812.98
2023-05-22T19:00:23.743Z,100821.04
2023-05-22T19:02:52.647Z,100823.29
2023-05-22T19:05:22.243Z,100824.92
2023-05-22T19:07:51.081Z,100822.71
2023-05-22T19:10:19.872Z,100821.77
2023-05-22T19:12:48.687Z,100819.45
2023-05-22T19:15:17.588Z,100824.89
2023-05-22T19:17:46.604Z,100822.06
2023-05-22T19:20:15.571Z,100820.28
2023-05-22T19:22:44.460Z,100813.70
2023-05-22T19:25:13.462Z,100819.66
2023-05-22T19:27:42.412Z,100822.77
2023-05-22T19:30:11.893Z,100823.12
2023-05-22T19:32:40.961Z,100820.58
2023-05-22T19:35:11.249Z,100815.58
2023-05-22T19:37:40.160Z,100815.59
2023-05-22T19:40:10.087Z,100815.84
2023-05-22T19:42:42.153Z,100813.00
2023-05-22T19:45:11.567Z,100814.23
2023-05-22T19:47:40.454Z,100819.00
2023-05-22T19:50:10.414Z,100821.23
2023-05-22T19:52:39.301Z,100828.75
2023-05-22T19:55:10.102Z,100837.05
2023-05-22T19:57:39.027Z,100842.31
2023-05-22T20:00:11.145Z,100837.04
2023-05-22T20:02:42.769Z,100837.79
2023-05-22T20:05:13.651Z,100838.70
2023-05-22T20:07:43.654Z,100841.30
2023-05-22T20:10:12.749Z,100843.16
2023-05-22T20:12:41.883Z,100842.52
2023-05-22T20:15:15.338Z,100839.87
2023-05-22T20:17:48.070Z,100838.60
2023-05-22T20:20:17.333Z,100839.61
2023-05-22T20:22:46.424Z,100836.02
2023-05-22T20:25:15.459Z,100841.48
2023-05-22T20:27:44.549Z,100847.42
2023-05-22T20:30:14.076Z,100847.88
2023-05-22T20:32:45.847Z,100846.73
2023-05-22T20:35:19.122Z,100852.23
2023-05-22T20:37:48.874Z,100854.77
2023-05-22T20:40:17.889Z,100859.16
2023-05-22T20:42:48.034Z,100856.36
2023-05-22T20:45:17.821Z,100855.86
2023-05-22T20:47:46.971Z,100855.56
2023-05-22T20:50:16.163Z,100855.80
2023-05-22T20:52:46.237Z,100851.46
2023-05-22T20:55:15.183Z,100851.18
2023-05-22T20:57:44.116Z,100851.51
2023-05-22T21:00:14.293Z,100854.16
2023-05-22T21:02:43.309Z,100854.50
2023-05-22T21:05:12.528Z,100849.31
2023-05-22T21:07:41.528Z,100852.01
2023-05-22T21:10:11.385Z,100850.70
2023-05-22T21:12:40.261Z,100847.67
2023-05-22T21:15:10.607Z,100847.02
2023-05-22T21:17:39.767Z,100844.92
2023-05-22T21:20:09.396Z,100847.59
2023-05-22T21:22:38.465Z,100852.41
2023-05-22T21:25:08.767Z,100855.19
2023-05-22T21:27:37.577Z,100852.92
2023-05-22T21:30:07.656Z,100859.39
2023-05-22T21:32:37.284Z,100858.73
2023-05-22T21:35:07.014Z,100867.18
2023-05-22T21:37:35.936Z,100869.55
2023-05-22T21:40:05.556Z,100871.34
2023-05-22T21:42:45.121Z,100870.11
2023-05-22T21:45:15.786Z,100867.95
2023-05-22T21:47:44.727Z,100871.24
2023-05-22T21:50:13.884Z,100872.14
2023-05-22T21:52:44.411Z,100872.96
2023-05-22T21:55:13.437Z,100871.33
2023-05-22T21:57:42.401Z,100872.52
2023-05-22T22:00:12.721Z,100865.65
2023-05-22T22:02:42.699Z,100865.42
2023-05-22T22:05:14.507Z,100864.59
2023-05-22T22:07:43.327Z,100865.92
2023-05-22T22:10:12.290Z,100860.35
2023-05-22T22:12:41.799Z,100858.88
2023-05-22T22:15:12.786Z,100860.58
2023-05-22T22:17:41.651Z,100859.42
2023-05-22T22:20:11.575Z,100857.98
2023-05-22T22:22:41.203Z,100857.07
2023-05-22T22:25:10.393Z,100857.11
2023-05-22T22:27:39.444Z,100858.85
2023-05-22T22:30:10.184Z,100858.98
2023-05-22T22:32:39.128Z,100857.25
2023-05-22T22:35:08.996Z,100858.46
2023-05-22T22:37:38.014Z,100857.87
2023-05-22T22:40:10.858Z,100854.20
2023-05-22T22:42:39.763Z,100850.33
2023-05-22T22:45:10.089Z,100849.98
2023-05-22T22:47:40.036Z,100848.46
2023-05-22T22:50:10.227Z,100849.84
2023-05-22T22:52:39.233Z,100850.11
2023-05-22T22:55:09.324Z,100846.40
2023-05-22T22:57:38.999Z,100842.84
2023-05-22T23:00:09.388Z,100840.23
2023-05-22T23:02:38.287Z,100842.96
2023-05-22T23:05:08.424Z,100838.27
2023-05-22T23:07:37.498Z,100833.30
2023-05-22T23:10:07.700Z,100832.70
2023-05-22T23:12:36.598Z,100829.04
2023-05-22T23:15:09.331Z,100829.12
2023-05-22T23:17:38.597Z,100825.83
2023-05-22T23:20:09.208Z,100821.70
2023-05-22T23:22:38.093Z,100823.25
2023-05-22T23:25:08.835Z,100823.48
2023-05-22T23:27:37.956Z,100816.54
2023-05-22T23:30:08.492Z,100823.50
2023-05-22T23:32:37.394Z,100822.85
2023-05-22T23:35:07.134Z,100824.36
2023-05-22T23:37:36.182Z,100824.95
2023-05-22T23:40:07.009Z,100826.34
2023-05-22T23:42:36.605Z,100830.50
2023-05-22T23:45:06.323Z,100833.36
2023-05-22T23:47:35.348Z,100828.67
2023-05-22T23:50:05.120Z,100826.23
2023-05-22T23:52:34.147Z,100829.95
2023-05-22T23:55:03.013Z,100824.61
2023-05-22T23:57:32.105Z,100827.14
